sensor_id;sensor_type;location;lat;lon;timestamp;temperature;humidity
34572;DHT22;20808;48.974;8.452;2022-08-19T00:00:51;20.60;99.90
34572;DHT22;20808;48.974;8.452;2022-08-19T00:03:17;20.50;1.00
34572;DHT22;20808;48.974;8.452;2022-08-19T00:05:44;20.60;1.00
34572;DHT22;20808;48.974;8.452;2022-08-19T00:08:11;20.50;1.00
34572;DHT22;20808;48.974;8.452;2022-08-19T00:10:38;20.60;1.00
34572;DHT22;20808;48.974;8.452;2022-08-19T00:13:06;20.50;1.00
34572;DHT22;20808;48.974;8.452;2022-08-19T00:15:33;20.60;1.00
34572;DHT22;20808;48.974;8.452;2022-08-19T00:18:00;20.60;1.00
34572;DHT22;20808;48.974;8.452;2022-08-19T00:20:27;20.70;1.00
34572;DHT22;20808;48.974;8.452;2022-08-19T00:22:54;20.70;1.00
34572;DHT22;20808;48.974;8.452;2022-08-19T00:25:21;20.70;1.00
34572;DHT22;20808;48.974;8.452;2022-08-19T00:27:48;20.70;1.00
34572;DHT22;20808;48.974;8.452;2022-08-19T00:30:16;20.80;1.00
34572;DHT22;20808;48.974;8.452;2022-08-19T00:32:43;20.80;1.00
34572;DHT22;20808;48.974;8.452;2022-08-19T00:35:10;20.80;1.00
34572;DHT22;20808;48.974;8.452;2022-08-19T00:37:38;20.80;1.00
34572;DHT22;20808;48.974;8.452;2022-08-19T00:40:10;20.80;1.00
34572;DHT22;20808;48.974;8.452;2022-08-19T00:42:37;20.70;1.00
34572;DHT22;20808;48.974;8.452;2022-08-19T00:45:09;20.80;1.00
34572;DHT22;20808;48.974;8.452;2022-08-19T00:47:38;20.80;1.00
34572;DHT22;20808;48.974;8.452;2022-08-19T00:50:09;20.80;1.00
34572;DHT22;20808;48.974;8.452;2022-08-19T00:52:40;20.80;1.00
34572;DHT22;20808;48.974;8.452;2022-08-19T00:55:14;20.70;94.50
34572;DHT22;20808;48.974;8.452;2022-08-19T00:57:44;20.80;99.90
34572;DHT22;20808;48.974;8.452;2022-08-19T01:00:18;20.80;99.90
34572;DHT22;20808;48.974;8.452;2022-08-19T01:02:46;20.80;99.90
34572;DHT22;20808;48.974;8.452;2022-08-19T01:05:17;20.70;1.00
34572;DHT22;20808;48.974;8.452;2022-08-19T01:07:47;20.80;99.90
34572;DHT22;20808;48.974;8.452;2022-08-19T01:10:17;20.80;99.90
34572;DHT22;20808;48.974;8.452;2022-08-19T01:12:45;20.80;1.00
34572;DHT22;20808;48.974;8.452;2022-08-19T01:15:14;20.80;1.00
34572;DHT22;20808;48.974;8.452;2022-08-19T01:17:42;20.80;1.00
34572;DHT22;20808;48.974;8.452;2022-08-19T01:20:12;20.80;1.00
34572;DHT22;20808;48.974;8.452;2022-08-19T01:22:45;20.70;1.00
34572;DHT22;20808;48.974;8.452;2022-08-19T01:25:13;20.80;1.00
34572;DHT22;20808;48.974;8.452;2022-08-19T01:27:42;20.80;1.00
34572;DHT22;20808;48.974;8.452;2022-08-19T01:30:11;20.80;1.00
34572;DHT22;20808;48.974;8.452;2022-08-19T01:32:38;20.80;1.00
34572;DHT22;20808;48.974;8.452;2022-08-19T01:35:05;20.70;1.00
34572;DHT22;20808;48.974;8.452;2022-08-19T01:37:46;20.70;1.00
34572;DHT22;20808;48.974;8.452;2022-08-19T01:40:13;20.70;1.00
34572;DHT22;20808;48.974;8.452;2022-08-19T01:42:40;20.70;1.00
34572;DHT22;20808;48.974;8.452;2022-08-19T01:45:08;20.60;1.00
34572;DHT22;20808;48.974;8.452;2022-08-19T01:47:36;20.60;1.00
34572;DHT22;20808;48.974;8.452;2022-08-19T01:50:05;20.50;1.00
34572;DHT22;20808;48.974;8.452;2022-08-19T01:52:32;20.50;1.00
34572;DHT22;20808;48.974;8.452;2022-08-19T01:55:04;20.50;1.00
34572;DHT22;20808;48.974;8.452;2022-08-19T01:57:31;20.50;1.00
34572;DHT22;20808;48.974;8.452;2022-08-19T01:59:58;20.50;1.00
34572;DHT22;20808;48.974;8.452;2022-08-19T02:02:26;20.60;1.00
34572;DHT22;20808;48.974;8.452;2022-08-19T02:04:52;20.50;1.00
34572;DHT22;20808;48.974;8.452;2022-08-19T02:07:20;20.50;1.00
34572;DHT22;20808;48.974;8.452;2022-08-19T02:09:47;20.50;1.00
34572;DHT22;20808;48.974;8.452;2022-08-19T02:12:15;20.40;1.00
34572;DHT22;20808;48.974;8.452;2022-08-19T02:14:42;20.40;1.00
34572;DHT22;20808;48.974;8.452;2022-08-19T02:17:09;20.40;1.00
34572;DHT22;20808;48.974;8.452;2022-08-19T02:19:36;20.40;1.00
34572;DHT22;20808;48.974;8.452;2022-08-19T02:22:03;20.30;1.00
34572;DHT22;20808;48.974;8.452;2022-08-19T02:24:30;20.40;1.00
34572;DHT22;20808;48.974;8.452;2022-08-19T02:26:57;20.50;1.00
34572;DHT22;20808;48.974;8.452;2022-08-19T02:29:25;20.50;1.00
34572;DHT22;20808;48.974;8.452;2022-08-19T02:31:52;20.50;1.00
34572;DHT22;20808;48.974;8.452;2022-08-19T02:34:19;20.40;1.00
34572;DHT22;20808;48.974;8.452;2022-08-19T02:36:45;20.40;1.00
34572;DHT22;20808;48.974;8.452;2022-08-19T02:39:12;20.40;1.00
34572;DHT22;20808;48.974;8.452;2022-08-19T02:41:39;20.30;1.00
34572;DHT22;20808;48.974;8.452;2022-08-19T02:44:06;20.30;1.00
34572;DHT22;20808;48.974;8.452;2022-08-19T02:46:35;20.30;1.00
34572;DHT22;20808;48.974;8.452;2022-08-19T02:49:04;20.20;1.00
34572;DHT22;20808;48.974;8.452;2022-08-19T02:51:34;20.20;1.00
34572;DHT22;20808;48.974;8.452;2022-08-19T02:54:01;20.20;1.00
34572;DHT22;20808;48.974;8.452;2022-08-19T02:56:29;20.10;1.00
34572;DHT22;20808;48.974;8.452;2022-08-19T02:58:56;20.20;1.00
34572;DHT22;20808;48.974;8.452;2022-08-19T03:01:26;20.30;1.00
34572;DHT22;20808;48.974;8.452;2022-08-19T03:03:54;20.30;1.00
34572;DHT22;20808;48.974;8.452;2022-08-19T03:06:21;20.30;1.00
34572;DHT22;20808;48.974;8.452;2022-08-19T03:08:49;20.20;1.00
34572;DHT22;20808;48.974;8.452;2022-08-19T03:11:18;20.20;1.00
34572;DHT22;20808;48.974;8.452;2022-08-19T03:13:45;20.30;1.00
34572;DHT22;20808;48.974;8.452;2022-08-19T03:16:14;20.30;1.00
34572;DHT22;20808;48.974;8.452;2022-08-19T03:18:41;20.20;1.00
34572;DHT22;20808;48.974;8.452;2022-08-19T03:21:16;20.30;1.00
34572;DHT22;20808;48.974;8.452;2022-08-19T03:23:43;20.30;1.00
34572;DHT22;20808;48.974;8.452;2022-08-19T03:26:09;20.30;1.00
34572;DHT22;20808;48.974;8.452;2022-08-19T03:28:36;20.30;1.00
34572;DHT22;20808;48.974;8.452;2022-08-19T03:31:06;20.20;1.00
34572;DHT22;20808;48.974;8.452;2022-08-19T03:33:34;20.20;1.00
34572;DHT22;20808;48.974;8.452;2022-08-19T03:36:08;20.20;1.00
34572;DHT22;20808;48.974;8.452;2022-08-19T03:38:38;20.10;1.00
34572;DHT22;20808;48.974;8.452;2022-08-19T03:41:07;20.10;1.00
34572;DHT22;20808;48.974;8.452;2022-08-19T03:43:36;20.00;1.00
34572;DHT22;20808;48.974;8.452;2022-08-19T03:46:05;19.90;23.80
34572;DHT22;20808;48.974;8.452;2022-08-19T03:48:33;19.90;47.40
34572;DHT22;20808;48.974;8.452;2022-08-19T03:51:00;19.80;64.60
34572;DHT22;20808;48.974;8.452;2022-08-19T03:53:29;19.80;83.20
34572;DHT22;20808;48.974;8.452;2022-08-19T03:55:58;19.80;98.90
34572;DHT22;20808;48.974;8.452;2022-08-19T03:58:26;19.80;90.90
34572;DHT22;20808;48.974;8.452;2022-08-19T04:00:54;19.80;86.10
34572;DHT22;20808;48.974;8.452;2022-08-19T04:03:21;19.70;99.90
34572;DHT22;20808;48.974;8.452;2022-08-19T04:05:48;19.70;99.90
34572;DHT22;20808;48.974;8.452;2022-08-19T04:08:15;19.80;99.90
34572;DHT22;20808;48.974;8.452;2022-08-19T04:10:44;19.80;99.90
34572;DHT22;20808;48.974;8.452;2022-08-19T04:13:13;19.90;99.90
34572;DHT22;20808;48.974;8.452;2022-08-19T04:15:41;19.80;99.90
34572;DHT22;20808;48.974;8.452;2022-08-19T04:18:08;19.80;99.90
34572;DHT22;20808;48.974;8.452;2022-08-19T04:20:40;19.70;99.90
34572;DHT22;20808;48.974;8.452;2022-08-19T04:23:07;19.70;99.90
34572;DHT22;20808;48.974;8.452;2022-08-19T04:25:36;19.70;99.90
34572;DHT22;20808;48.974;8.452;2022-08-19T04:28:04;19.70;99.90
34572;DHT22;20808;48.974;8.452;2022-08-19T04:30:37;19.60;99.90
34572;DHT22;20808;48.974;8.452;2022-08-19T04:33:04;19.60;99.90
34572;DHT22;20808;48.974;8.452;2022-08-19T04:35:36;19.60;99.90
34572;DHT22;20808;48.974;8.452;2022-08-19T04:38:03;19.60;99.90
34572;DHT22;20808;48.974;8.452;2022-08-19T04:40:30;19.60;99.90
34572;DHT22;20808;48.974;8.452;2022-08-19T04:43:15;19.70;99.90
34572;DHT22;20808;48.974;8.452;2022-08-19T04:45:44;19.80;99.90
34572;DHT22;20808;48.974;8.452;2022-08-19T04:48:11;19.80;99.90
34572;DHT22;20808;48.974;8.452;2022-08-19T04:50:41;19.80;99.90
34572;DHT22;20808;48.974;8.452;2022-08-19T04:53:08;19.80;99.90
34572;DHT22;20808;48.974;8.452;2022-08-19T04:55:39;19.80;99.90
34572;DHT22;20808;48.974;8.452;2022-08-19T04:58:06;19.80;99.90
34572;DHT22;20808;48.974;8.452;2022-08-19T05:00:33;19.90;99.90
34572;DHT22;20808;48.974;8.452;2022-08-19T05:03:01;20.00;99.90
34572;DHT22;20808;48.974;8.452;2022-08-19T05:05:28;20.00;99.90
34572;DHT22;20808;48.974;8.452;2022-08-19T05:07:57;20.00;99.90
34572;DHT22;20808;48.974;8.452;2022-08-19T05:10:24;20.10;99.90
34572;DHT22;20808;48.974;8.452;2022-08-19T05:12:50;20.20;99.90
34572;DHT22;20808;48.974;8.452;2022-08-19T05:15:17;20.20;99.90
34572;DHT22;20808;48.974;8.452;2022-08-19T05:17:45;20.30;98.10
34572;DHT22;20808;48.974;8.452;2022-08-19T05:20:33;20.30;94.30
34572;DHT22;20808;48.974;8.452;2022-08-19T05:23:17;20.30;93.60
34572;DHT22;20808;48.974;8.452;2022-08-19T05:25:44;20.30;91.70
34572;DHT22;20808;48.974;8.452;2022-08-19T05:28:11;20.30;62.90
34572;DHT22;20808;48.974;8.452;2022-08-19T05:30:38;20.40;51.40
34572;DHT22;20808;48.974;8.452;2022-08-19T05:33:06;20.40;78.90
34572;DHT22;20808;48.974;8.452;2022-08-19T05:35:37;20.40;98.10
34572;DHT22;20808;48.974;8.452;2022-08-19T05:38:04;20.50;41.70
34572;DHT22;20808;48.974;8.452;2022-08-19T05:40:33;20.50;6.70
34572;DHT22;20808;48.974;8.452;2022-08-19T05:43:01;20.50;1.00
34572;DHT22;20808;48.974;8.452;2022-08-19T05:45:28;20.50;1.00
34572;DHT22;20808;48.974;8.452;2022-08-19T05:47:55;20.50;9.10
34572;DHT22;20808;48.974;8.452;2022-08-19T05:50:22;20.50;14.10
34572;DHT22;20808;48.974;8.452;2022-08-19T05:52:52;20.50;1.00
34572;DHT22;20808;48.974;8.452;2022-08-19T05:55:19;20.50;1.00
34572;DHT22;20808;48.974;8.452;2022-08-19T05:57:47;20.60;1.00
34572;DHT22;20808;48.974;8.452;2022-08-19T06:00:15;20.60;1.00
34572;DHT22;20808;48.974;8.452;2022-08-19T06:02:42;20.60;1.00
34572;DHT22;20808;48.974;8.452;2022-08-19T06:05:10;20.70;1.00
34572;DHT22;20808;48.974;8.452;2022-08-19T06:07:37;20.70;1.00
34572;DHT22;20808;48.974;8.452;2022-08-19T06:10:08;20.80;1.00
34572;DHT22;20808;48.974;8.452;2022-08-19T06:12:36;20.90;1.00
34572;DHT22;20808;48.974;8.452;2022-08-19T06:15:05;20.90;1.00
34572;DHT22;20808;48.974;8.452;2022-08-19T06:17:33;21.00;1.00
34572;DHT22;20808;48.974;8.452;2022-08-19T06:20:00;21.00;1.00
34572;DHT22;20808;48.974;8.452;2022-08-19T06:22:27;20.90;1.00
34572;DHT22;20808;48.974;8.452;2022-08-19T06:24:55;20.90;1.00
34572;DHT22;20808;48.974;8.452;2022-08-19T06:27:23;21.00;1.00
34572;DHT22;20808;48.974;8.452;2022-08-19T06:29:50;21.10;1.00
34572;DHT22;20808;48.974;8.452;2022-08-19T06:32:18;21.20;1.00
34572;DHT22;20808;48.974;8.452;2022-08-19T06:34:45;21.20;1.00
34572;DHT22;20808;48.974;8.452;2022-08-19T06:37:12;21.20;1.00
34572;DHT22;20808;48.974;8.452;2022-08-19T06:39:42;21.30;1.00
34572;DHT22;20808;48.974;8.452;2022-08-19T06:42:09;21.40;1.00
34572;DHT22;20808;48.974;8.452;2022-08-19T06:44:41;21.50;99.90
34572;DHT22;20808;48.974;8.452;2022-08-19T06:47:10;21.60;99.90
34572;DHT22;20808;48.974;8.452;2022-08-19T06:49:37;21.70;1.00
34572;DHT22;20808;48.974;8.452;2022-08-19T06:52:05;21.90;1.00
34572;DHT22;20808;48.974;8.452;2022-08-19T06:54:32;21.90;1.00
34572;DHT22;20808;48.974;8.452;2022-08-19T06:57:00;22.00;1.00
34572;DHT22;20808;48.974;8.452;2022-08-19T06:59:28;22.20;60.70
34572;DHT22;20808;48.974;8.452;2022-08-19T07:02:00;22.60;1.00
34572;DHT22;20808;48.974;8.452;2022-08-19T07:04:29;22.80;53.40
34572;DHT22;20808;48.974;8.452;2022-08-19T07:06:59;23.00;1.00
34572;DHT22;20808;48.974;8.452;2022-08-19T07:09:27;23.30;1.00
34572;DHT22;20808;48.974;8.452;2022-08-19T07:11:55;23.20;1.00
34572;DHT22;20808;48.974;8.452;2022-08-19T07:14:24;23.10;1.00
34572;DHT22;20808;48.974;8.452;2022-08-19T07:16:52;23.30;1.00
34572;DHT22;20808;48.974;8.452;2022-08-19T07:19:23;23.50;99.90
34572;DHT22;20808;48.974;8.452;2022-08-19T07:21:51;23.40;1.00
34572;DHT22;20808;48.974;8.452;2022-08-19T07:24:19;23.50;1.00
34572;DHT22;20808;48.974;8.452;2022-08-19T07:26:46;23.50;1.00
34572;DHT22;20808;48.974;8.452;2022-08-19T07:29:13;23.60;1.00
34572;DHT22;20808;48.974;8.452;2022-08-19T07:31:42;23.60;99.90
34572;DHT22;20808;48.974;8.452;2022-08-19T07:34:12;23.40;1.00
34572;DHT22;20808;48.974;8.452;2022-08-19T07:36:42;23.40;1.00
34572;DHT22;20808;48.974;8.452;2022-08-19T07:39:16;23.40;99.90
34572;DHT22;20808;48.974;8.452;2022-08-19T07:41:44;23.40;99.90
34572;DHT22;20808;48.974;8.452;2022-08-19T07:44:12;23.40;99.90
34572;DHT22;20808;48.974;8.452;2022-08-19T07:46:42;23.40;99.90
34572;DHT22;20808;48.974;8.452;2022-08-19T07:49:11;23.70;99.90
34572;DHT22;20808;48.974;8.452;2022-08-19T07:51:46;23.90;99.90
34572;DHT22;20808;48.974;8.452;2022-08-19T07:54:14;23.90;99.90
34572;DHT22;20808;48.974;8.452;2022-08-19T07:56:41;24.10;99.90
34572;DHT22;20808;48.974;8.452;2022-08-19T07:59:07;24.20;91.50
34572;DHT22;20808;48.974;8.452;2022-08-19T08:01:35;24.20;87.60
34572;DHT22;20808;48.974;8.452;2022-08-19T08:04:03;24.10;56.70
34572;DHT22;20808;48.974;8.452;2022-08-19T08:06:48;23.90;46.20
34572;DHT22;20808;48.974;8.452;2022-08-19T08:09:35;23.80;48.60
34572;DHT22;20808;48.974;8.452;2022-08-19T08:12:05;23.90;43.80
34572;DHT22;20808;48.974;8.452;2022-08-19T08:14:36;24.10;32.50
34572;DHT22;20808;48.974;8.452;2022-08-19T08:17:05;24.40;16.70
34572;DHT22;20808;48.974;8.452;2022-08-19T08:19:32;24.70;1.00
34572;DHT22;20808;48.974;8.452;2022-08-19T08:22:01;25.00;1.00
34572;DHT22;20808;48.974;8.452;2022-08-19T08:24:29;25.50;1.00
34572;DHT22;20808;48.974;8.452;2022-08-19T08:26:58;25.90;1.00
34572;DHT22;20808;48.974;8.452;2022-08-19T08:29:26;26.10;1.00
34572;DHT22;20808;48.974;8.452;2022-08-19T08:31:53;26.40;1.00
34572;DHT22;20808;48.974;8.452;2022-08-19T08:34:20;26.60;1.00
34572;DHT22;20808;48.974;8.452;2022-08-19T08:36:47;26.30;1.00
34572;DHT22;20808;48.974;8.452;2022-08-19T08:39:19;26.20;1.00
34572;DHT22;20808;48.974;8.452;2022-08-19T08:41:52;26.30;1.00
34572;DHT22;20808;48.974;8.452;2022-08-19T08:44:22;26.60;1.00
34572;DHT22;20808;48.974;8.452;2022-08-19T08:46:53;26.80;1.00
34572;DHT22;20808;48.974;8.452;2022-08-19T08:49:30;27.50;1.00
34572;DHT22;20808;48.974;8.452;2022-08-19T08:52:02;28.20;1.00
34572;DHT22;20808;48.974;8.452;2022-08-19T08:54:37;28.20;1.00
34572;DHT22;20808;48.974;8.452;2022-08-19T08:57:14;28.60;1.00
34572;DHT22;20808;48.974;8.452;2022-08-19T08:59:43;28.90;1.00
34572;DHT22;20808;48.974;8.452;2022-08-19T09:02:17;28.60;1.00
34572;DHT22;20808;48.974;8.452;2022-08-19T09:04:44;28.90;1.00
34572;DHT22;20808;48.974;8.452;2022-08-19T09:07:21;29.30;1.00
34572;DHT22;20808;48.974;8.452;2022-08-19T09:09:56;29.60;1.00
34572;DHT22;20808;48.974;8.452;2022-08-19T09:12:30;30.10;1.00
34572;DHT22;20808;48.974;8.452;2022-08-19T09:15:03;30.20;1.00
34572;DHT22;20808;48.974;8.452;2022-08-19T09:17:31;30.60;1.00
34572;DHT22;20808;48.974;8.452;2022-08-19T09:20:04;29.80;1.00
34572;DHT22;20808;48.974;8.452;2022-08-19T09:22:32;30.00;1.00
34572;DHT22;20808;48.974;8.452;2022-08-19T09:25:00;30.00;1.00
34572;DHT22;20808;48.974;8.452;2022-08-19T09:27:28;30.00;1.00
34572;DHT22;20808;48.974;8.452;2022-08-19T09:29:55;30.60;1.00
34572;DHT22;20808;48.974;8.452;2022-08-19T09:32:22;31.00;1.00
34572;DHT22;20808;48.974;8.452;2022-08-19T09:34:53;32.00;1.00
34572;DHT22;20808;48.974;8.452;2022-08-19T09:37:20;31.70;1.00
34572;DHT22;20808;48.974;8.452;2022-08-19T09:39:47;31.40;1.00
34572;DHT22;20808;48.974;8.452;2022-08-19T09:42:15;30.30;1.00
34572;DHT22;20808;48.974;8.452;2022-08-19T09:44:42;30.70;1.00
34572;DHT22;20808;48.974;8.452;2022-08-19T09:47:11;30.30;1.00
34572;DHT22;20808;48.974;8.452;2022-08-19T09:49:39;29.90;1.00
34572;DHT22;20808;48.974;8.452;2022-08-19T09:52:07;29.70;1.00
34572;DHT22;20808;48.974;8.452;2022-08-19T09:54:34;29.60;1.00
34572;DHT22;20808;48.974;8.452;2022-08-19T09:57:01;29.30;1.00
34572;DHT22;20808;48.974;8.452;2022-08-19T09:59:29;29.50;1.00
34572;DHT22;20808;48.974;8.452;2022-08-19T10:01:57;29.50;1.00
34572;DHT22;20808;48.974;8.452;2022-08-19T10:04:24;29.70;1.00
34572;DHT22;20808;48.974;8.452;2022-08-19T10:07:12;29.80;1.00
34572;DHT22;20808;48.974;8.452;2022-08-19T10:09:39;29.20;1.00
34572;DHT22;20808;48.974;8.452;2022-08-19T10:12:07;29.70;1.00
34572;DHT22;20808;48.974;8.452;2022-08-19T10:14:37;29.90;1.00
34572;DHT22;20808;48.974;8.452;2022-08-19T10:17:04;29.60;1.00
34572;DHT22;20808;48.974;8.452;2022-08-19T10:19:31;29.50;1.00
34572;DHT22;20808;48.974;8.452;2022-08-19T10:22:03;29.80;1.00
34572;DHT22;20808;48.974;8.452;2022-08-19T10:24:30;31.10;1.00
34572;DHT22;20808;48.974;8.452;2022-08-19T10:26:59;32.60;1.00
34572;DHT22;20808;48.974;8.452;2022-08-19T10:29:26;32.70;1.00
34572;DHT22;20808;48.974;8.452;2022-08-19T10:31:55;32.50;1.00
34572;DHT22;20808;48.974;8.452;2022-08-19T10:34:23;32.40;1.00
34572;DHT22;20808;48.974;8.452;2022-08-19T10:36:50;32.10;1.00
34572;DHT22;20808;48.974;8.452;2022-08-19T10:39:17;33.20;1.00
34572;DHT22;20808;48.974;8.452;2022-08-19T10:41:43;33.60;1.00
34572;DHT22;20808;48.974;8.452;2022-08-19T10:44:12;33.20;1.00
34572;DHT22;20808;48.974;8.452;2022-08-19T10:46:41;33.70;1.00
34572;DHT22;20808;48.974;8.452;2022-08-19T10:49:10;34.20;1.00
34572;DHT22;20808;48.974;8.452;2022-08-19T10:51:37;34.20;1.00
34572;DHT22;20808;48.974;8.452;2022-08-19T10:54:21;35.50;1.00
34572;DHT22;20808;48.974;8.452;2022-08-19T10:56:48;35.50;1.00
34572;DHT22;20808;48.974;8.452;2022-08-19T10:59:18;35.10;1.00
34572;DHT22;20808;48.974;8.452;2022-08-19T11:01:47;34.20;1.00
34572;DHT22;20808;48.974;8.452;2022-08-19T11:04:17;33.60;1.00
34572;DHT22;20808;48.974;8.452;2022-08-19T11:06:44;32.50;1.00
34572;DHT22;20808;48.974;8.452;2022-08-19T11:09:13;32.20;1.00
34572;DHT22;20808;48.974;8.452;2022-08-19T11:11:40;32.40;1.00
34572;DHT22;20808;48.974;8.452;2022-08-19T11:14:08;32.80;1.00
34572;DHT22;20808;48.974;8.452;2022-08-19T11:16:35;33.10;1.00
34572;DHT22;20808;48.974;8.452;2022-08-19T11:19:03;33.10;1.00
34572;DHT22;20808;48.974;8.452;2022-08-19T11:21:33;32.50;1.00
34572;DHT22;20808;48.974;8.452;2022-08-19T11:24:03;32.10;1.00
34572;DHT22;20808;48.974;8.452;2022-08-19T11:26:31;31.90;1.00
34572;DHT22;20808;48.974;8.452;2022-08-19T11:28:59;31.30;1.00
34572;DHT22;20808;48.974;8.452;2022-08-19T11:31:28;30.50;1.00
34572;DHT22;20808;48.974;8.452;2022-08-19T11:33:56;30.20;1.00
34572;DHT22;20808;48.974;8.452;2022-08-19T11:36:23;30.30;1.00
34572;DHT22;20808;48.974;8.452;2022-08-19T11:38:52;30.90;1.00
34572;DHT22;20808;48.974;8.452;2022-08-19T11:41:21;31.60;1.00
34572;DHT22;20808;48.974;8.452;2022-08-19T11:43:49;32.80;1.00
34572;DHT22;20808;48.974;8.452;2022-08-19T11:46:16;33.00;1.00
34572;DHT22;20808;48.974;8.452;2022-08-19T11:48:43;32.00;1.00
34572;DHT22;20808;48.974;8.452;2022-08-19T11:51:12;31.10;1.00
34572;DHT22;20808;48.974;8.452;2022-08-19T11:53:40;30.40;1.00
34572;DHT22;20808;48.974;8.452;2022-08-19T11:56:09;30.00;1.00
34572;DHT22;20808;48.974;8.452;2022-08-19T11:58:36;31.00;1.00
34572;DHT22;20808;48.974;8.452;2022-08-19T12:01:05;32.50;1.00
34572;DHT22;20808;48.974;8.452;2022-08-19T12:03:32;33.50;1.00
34572;DHT22;20808;48.974;8.452;2022-08-19T12:06:03;33.60;1.00
34572;DHT22;20808;48.974;8.452;2022-08-19T12:08:30;32.30;1.00
34572;DHT22;20808;48.974;8.452;2022-08-19T12:10:57;31.70;1.00
34572;DHT22;20808;48.974;8.452;2022-08-19T12:13:27;31.90;1.00
34572;DHT22;20808;48.974;8.452;2022-08-19T12:15:56;32.10;1.00
34572;DHT22;20808;48.974;8.452;2022-08-19T12:18:23;32.80;1.00
34572;DHT22;20808;48.974;8.452;2022-08-19T12:20:52;33.80;1.00
34572;DHT22;20808;48.974;8.452;2022-08-19T12:23:20;33.90;1.00
34572;DHT22;20808;48.974;8.452;2022-08-19T12:25:48;32.90;1.00
34572;DHT22;20808;48.974;8.452;2022-08-19T12:28:18;31.30;1.00
34572;DHT22;20808;48.974;8.452;2022-08-19T12:30:46;29.90;1.00
34572;DHT22;20808;48.974;8.452;2022-08-19T12:33:13;29.20;1.00
34572;DHT22;20808;48.974;8.452;2022-08-19T12:35:41;28.80;1.00
34572;DHT22;20808;48.974;8.452;2022-08-19T12:38:09;28.50;1.00
34572;DHT22;20808;48.974;8.452;2022-08-19T12:40:36;28.40;1.00
34572;DHT22;20808;48.974;8.452;2022-08-19T12:43:05;28.20;1.00
34572;DHT22;20808;48.974;8.452;2022-08-19T12:45:33;28.20;1.00
34572;DHT22;20808;48.974;8.452;2022-08-19T12:48:01;27.80;1.00
34572;DHT22;20808;48.974;8.452;2022-08-19T12:50:28;27.80;1.00
34572;DHT22;20808;48.974;8.452;2022-08-19T12:52:56;27.90;1.00
34572;DHT22;20808;48.974;8.452;2022-08-19T12:55:23;28.00;1.00
34572;DHT22;20808;48.974;8.452;2022-08-19T12:57:54;28.00;1.00
34572;DHT22;20808;48.974;8.452;2022-08-19T13:00:21;28.10;1.00
34572;DHT22;20808;48.974;8.452;2022-08-19T13:02:50;28.30;1.00
34572;DHT22;20808;48.974;8.452;2022-08-19T13:05:20;28.50;1.00
34572;DHT22;20808;48.974;8.452;2022-08-19T13:07:48;28.50;1.00
34572;DHT22;20808;48.974;8.452;2022-08-19T13:10:17;29.30;1.00
34572;DHT22;20808;48.974;8.452;2022-08-19T13:12:46;30.70;1.00
34572;DHT22;20808;48.974;8.452;2022-08-19T13:15:15;31.90;1.00
34572;DHT22;20808;48.974;8.452;2022-08-19T13:17:45;32.50;1.00
34572;DHT22;20808;48.974;8.452;2022-08-19T13:20:12;33.70;1.00
34572;DHT22;20808;48.974;8.452;2022-08-19T13:22:41;34.00;1.00
34572;DHT22;20808;48.974;8.452;2022-08-19T13:25:08;33.30;1.00
34572;DHT22;20808;48.974;8.452;2022-08-19T13:27:36;33.30;1.00
34572;DHT22;20808;48.974;8.452;2022-08-19T13:30:04;34.40;1.00
34572;DHT22;20808;48.974;8.452;2022-08-19T13:32:49;34.10;1.00
34572;DHT22;20808;48.974;8.452;2022-08-19T13:35:33;33.50;1.00
34572;DHT22;20808;48.974;8.452;2022-08-19T13:38:02;33.10;1.00
34572;DHT22;20808;48.974;8.452;2022-08-19T13:40:30;32.70;1.00
34572;DHT22;20808;48.974;8.452;2022-08-19T13:43:00;31.90;1.00
34572;DHT22;20808;48.974;8.452;2022-08-19T13:45:28;31.60;1.00
34572;DHT22;20808;48.974;8.452;2022-08-19T13:47:59;31.50;1.00
34572;DHT22;20808;48.974;8.452;2022-08-19T13:50:28;31.60;1.00
34572;DHT22;20808;48.974;8.452;2022-08-19T13:52:57;32.20;1.00
34572;DHT22;20808;48.974;8.452;2022-08-19T13:55:25;33.30;1.00
34572;DHT22;20808;48.974;8.452;2022-08-19T13:57:54;34.30;1.00
34572;DHT22;20808;48.974;8.452;2022-08-19T14:00:23;35.20;1.00
34572;DHT22;20808;48.974;8.452;2022-08-19T14:02:54;35.40;1.00
34572;DHT22;20808;48.974;8.452;2022-08-19T14:05:22;35.10;1.00
34572;DHT22;20808;48.974;8.452;2022-08-19T14:07:49;33.90;1.00
34572;DHT22;20808;48.974;8.452;2022-08-19T14:10:16;33.10;1.00
34572;DHT22;20808;48.974;8.452;2022-08-19T14:12:45;32.70;1.00
34572;DHT22;20808;48.974;8.452;2022-08-19T14:15:13;33.00;1.00
34572;DHT22;20808;48.974;8.452;2022-08-19T14:17:41;32.90;1.00
34572;DHT22;20808;48.974;8.452;2022-08-19T14:20:10;32.80;1.00
34572;DHT22;20808;48.974;8.452;2022-08-19T14:22:39;32.50;1.00
34572;DHT22;20808;48.974;8.452;2022-08-19T14:25:09;32.50;1.00
34572;DHT22;20808;48.974;8.452;2022-08-19T14:27:37;32.60;1.00
34572;DHT22;20808;48.974;8.452;2022-08-19T14:30:07;32.10;1.00
34572;DHT22;20808;48.974;8.452;2022-08-19T14:32:35;31.80;1.00
34572;DHT22;20808;48.974;8.452;2022-08-19T14:35:03;31.30;1.00
34572;DHT22;20808;48.974;8.452;2022-08-19T14:37:30;31.20;1.00
34572;DHT22;20808;48.974;8.452;2022-08-19T14:39:57;31.00;1.00
34572;DHT22;20808;48.974;8.452;2022-08-19T14:42:23;30.80;1.00
34572;DHT22;20808;48.974;8.452;2022-08-19T14:44:50;31.00;1.00
34572;DHT22;20808;48.974;8.452;2022-08-19T14:47:18;31.30;1.00
34572;DHT22;20808;48.974;8.452;2022-08-19T14:49:45;31.30;1.00
34572;DHT22;20808;48.974;8.452;2022-08-19T14:52:12;31.50;1.00
34572;DHT22;20808;48.974;8.452;2022-08-19T14:54:39;31.90;1.00
34572;DHT22;20808;48.974;8.452;2022-08-19T14:57:06;32.20;1.00
34572;DHT22;20808;48.974;8.452;2022-08-19T14:59:34;32.40;1.00
34572;DHT22;20808;48.974;8.452;2022-08-19T15:02:01;32.30;1.00
34572;DHT22;20808;48.974;8.452;2022-08-19T15:04:29;32.00;1.00
34572;DHT22;20808;48.974;8.452;2022-08-19T15:06:56;31.60;1.00
34572;DHT22;20808;48.974;8.452;2022-08-19T15:09:23;31.10;1.00
34572;DHT22;20808;48.974;8.452;2022-08-19T15:11:50;30.60;1.00
34572;DHT22;20808;48.974;8.452;2022-08-19T15:14:17;30.10;1.00
34572;DHT22;20808;48.974;8.452;2022-08-19T15:16:46;29.80;1.00
34572;DHT22;20808;48.974;8.452;2022-08-19T15:19:13;29.60;1.00
34572;DHT22;20808;48.974;8.452;2022-08-19T15:21:41;29.20;1.00
34572;DHT22;20808;48.974;8.452;2022-08-19T15:24:08;29.00;1.00
34572;DHT22;20808;48.974;8.452;2022-08-19T15:26:35;28.70;1.00
34572;DHT22;20808;48.974;8.452;2022-08-19T15:29:03;28.60;1.00
34572;DHT22;20808;48.974;8.452;2022-08-19T15:31:31;28.30;1.00
34572;DHT22;20808;48.974;8.452;2022-08-19T15:34:02;28.10;1.00
34572;DHT22;20808;48.974;8.452;2022-08-19T15:36:31;27.90;1.00
34572;DHT22;20808;48.974;8.452;2022-08-19T15:39:01;27.80;1.00
34572;DHT22;20808;48.974;8.452;2022-08-19T15:41:29;27.70;1.00
34572;DHT22;20808;48.974;8.452;2022-08-19T15:43:59;27.60;1.00
34572;DHT22;20808;48.974;8.452;2022-08-19T15:46:30;27.50;1.00
34572;DHT22;20808;48.974;8.452;2022-08-19T15:48:58;27.50;1.00
34572;DHT22;20808;48.974;8.452;2022-08-19T15:51:26;27.50;1.00